Time;durP1;ratioP1;P1;durP2;ratioP2;P2;SDS_P1;SDS_P2;PMS_P1;PMS_P2;Temp;Humidity;BMP_temperature;BMP_pressure;BME280_temperature;BME280_humidity;BME280_pressure;Samples;Min_cycle;Max_cycle;Signal;HPM_P1;HPM_P2
2024/01/16 00:02:11;;;;;;;7.38;3.88;;;;;;;-0.21;65.03;95983.31;5057295;28;20049;-82
2024/01/16 00:04:40;;;;;;;5.35;3.42;;;;;;;-0.24;65.10;95986.13;5057400;28;20056;-81
2024/01/16 00:07:08;;;;;;;6.80;4.05;;;;;;;-0.24;65.24;95984.41;5057449;28;20088;-82
2024/01/16 00:09:36;;;;;;;7.13;3.97;;;;;;;-0.23;65.10;95987.75;5057327;28;20049;-83
2024/01/16 00:12:04;;;;;;;5.95;3.70;;;;;;;-0.23;65.67;95998.03;5056195;28;20045;-84
2024/01/16 00:14:35;;;;;;;7.05;4.53;;;;;;;-0.23;65.48;96001.38;5055798;28;20068;-82
2024/01/16 00:17:04;;;;;;;5.63;4.10;;;;;;;-0.23;65.36;96000.59;5055932;28;20049;-82
2024/01/16 00:19:31;;;;;;;6.90;4.00;;;;;;;-0.26;65.13;95998.28;5055838;28;20099;-83
2024/01/16 00:22:00;;;;;;;9.88;4.47;;;;;;;-0.28;65.07;96003.53;5056152;28;20585;-83
2024/01/16 00:24:28;;;;;;;5.72;3.63;;;;;;;-0.28;65.03;96000.16;5056181;28;20566;-83
2024/01/16 00:26:55;;;;;;;6.25;4.22;;;;;;;-0.27;65.22;96002.59;5055897;28;20063;-82
2024/01/16 00:29:23;;;;;;;5.88;3.35;;;;;;;-0.26;65.14;95995.72;5055866;28;20079;-82
2024/01/16 00:31:52;;;;;;;7.45;5.13;;;;;;;-0.29;64.70;95998.53;5055473;28;20103;-82
2024/01/16 00:34:20;;;;;;;6.65;3.58;;;;;;;-0.30;65.55;96002.03;5056149;28;20045;-82
2024/01/16 00:36:48;;;;;;;5.68;3.70;;;;;;;-0.30;65.43;95996.91;5055729;28;20045;-82
2024/01/16 00:39:16;;;;;;;6.75;4.38;;;;;;;-0.31;65.27;96008.09;5060804;28;20114;-83
2024/01/16 00:41:43;;;;;;;6.45;3.92;;;;;;;-0.33;65.79;96003.13;5061985;28;20071;-82
2024/01/16 00:44:11;;;;;;;10.57;4.72;;;;;;;-0.29;65.71;96011.34;5060767;28;20051;-82
2024/01/16 00:46:39;;;;;;;6.80;4.22;;;;;;;-0.32;65.18;96014.19;5055859;28;20057;-83
2024/01/16 00:49:09;;;;;;;7.32;4.00;;;;;;;-0.35;65.18;96017.81;5055475;28;20072;-83
2024/01/16 00:51:37;;;;;;;6.50;4.10;;;;;;;-0.36;65.44;96007.69;5054889;28;20064;-82
2024/01/16 00:54:06;;;;;;;6.03;3.95;;;;;;;-0.37;65.57;96012.00;5054749;28;20049;-82
2024/01/16 00:56:34;;;;;;;8.43;3.97;;;;;;;-0.37;65.29;96022.25;5055085;28;20061;-83
2024/01/16 00:59:02;;;;;;;8.68;4.60;;;;;;;-0.39;65.21;96013.03;5092470;23;20148;-77
2024/01/16 01:01:29;;;;;;;6.53;4.10;;;;;;;-0.40;65.48;96017.38;5033550;28;20418;-77
2024/01/16 01:03:57;;;;;;;7.38;3.90;;;;;;;-0.37;65.68;96016.28;5032129;28;20049;-77
2024/01/16 01:06:26;;;;;;;7.13;4.05;;;;;;;-0.38;65.56;96030.06;5033557;28;20049;-77
2024/01/16 01:08:53;;;;;;;6.55;4.20;;;;;;;-0.39;65.62;96018.16;5033804;28;20063;-77
2024/01/16 01:11:21;;;;;;;8.55;4.18;;;;;;;-0.43;65.55;96023.56;5033526;28;20095;-77
2024/01/16 01:13:49;;;;;;;7.05;3.88;;;;;;;-0.45;65.18;96019.50;5033278;28;20128;-77
2024/01/16 01:16:16;;;;;;;8.68;3.92;;;;;;;-0.49;65.25;96024.06;5033393;28;20515;-77
2024/01/16 01:18:44;;;;;;;8.48;4.60;;;;;;;-0.51;65.42;96022.56;5033419;28;20107;-77
2024/01/16 01:21:12;;;;;;;4.93;3.78;;;;;;;-0.53;65.17;96038.06;5033095;28;20057;-77
2024/01/16 01:23:41;;;;;;;6.32;3.70;;;;;;;-0.56;64.96;96037.53;5033084;28;20103;-77
2024/01/16 01:26:08;;;;;;;5.78;4.05;;;;;;;-0.57;65.41;96043.56;5033427;28;20095;-77
2024/01/16 01:28:39;;;;;;;6.97;3.67;;;;;;;-0.56;65.34;96043.47;5033429;28;20050;-77
2024/01/16 01:31:06;;;;;;;6.32;3.83;;;;;;;-0.54;65.40;96044.13;5033206;28;20056;-77
2024/01/16 01:33:34;;;;;;;5.88;3.95;;;;;;;-0.53;65.28;96043.19;5032831;28;20049;-77
2024/01/16 01:36:01;;;;;;;7.22;3.90;;;;;;;-0.53;65.29;96043.19;5033054;28;20284;-77
2024/01/16 01:38:29;;;;;;;7.45;3.67;;;;;;;-0.52;65.31;96049.16;5032815;28;20427;-77
2024/01/16 01:40:58;;;;;;;6.63;3.50;;;;;;;-0.51;65.57;96051.56;5033117;28;20049;-77
2024/01/16 01:43:26;;;;;;;6.18;3.95;;;;;;;-0.47;65.27;96052.13;5032616;28;20319;-77
2024/01/16 01:46:09;;;;;;;6.68;3.85;;;;;;;-0.46;65.10;96058.88;5033055;28;20052;-76
2024/01/16 01:48:38;;;;;;;;;;;;;;;-0.42;65.48;96061.06;5033218;28;20085;-77
2024/01/16 01:51:06;;;;;;;6.72;3.38;;;;;;;-0.43;65.17;96056.88;5033116;28;19928;-77
2024/01/16 01:53:35;;;;;;;6.20;3.45;;;;;;;-0.45;65.62;96060.50;5032702;28;20084;-77
2024/01/16 01:56:07;;;;;;;7.30;3.83;;;;;;;-0.42;66.03;96065.38;5032859;28;20056;-77
2024/01/16 01:58:37;;;;;;;6.40;3.35;;;;;;;-0.39;65.76;96066.84;5032772;28;20057;-77
2024/01/16 02:01:06;;;;;;;7.20;4.00;;;;;;;-0.38;65.59;96066.75;5034493;28;20511;-77
2024/01/16 02:03:41;;;;;;;4.70;3.20;;;;;;;-0.39;64.79;96069.41;5036180;28;20486;-77
2024/01/16 02:06:10;;;;;;;6.55;3.70;;;;;;;-0.42;65.54;96068.75;5032667;28;20042;-77
2024/01/16 02:08:37;;;;;;;6.25;3.88;;;;;;;-0.39;65.29;96074.53;5032809;28;20076;-77
2024/01/16 02:11:07;;;;;;;7.40;3.75;;;;;;;-0.39;65.16;96072.81;5032526;28;20054;-77
2024/01/16 02:13:35;;;;;;;7.03;4.32;;;;;;;-0.37;64.98;96077.78;5032245;28;20055;-77
2024/01/16 02:16:03;;;;;;;6.63;4.47;;;;;;;-0.42;65.18;96085.88;5032329;28;20045;-76
2024/01/16 02:18:30;;;;;;;6.88;4.60;;;;;;;-0.39;65.25;96082.22;5032418;28;20119;-77
2024/01/16 02:21:01;;;;;;;6.03;3.10;;;;;;;-0.38;65.37;96083.88;5032401;28;20049;-77
2024/01/16 02:23:31;;;;;;;7.57;3.72;;;;;;;-0.38;65.46;96082.13;5031913;28;20055;-77
2024/01/16 02:25:59;;;;;;;6.13;4.30;;;;;;;-0.37;65.34;96072.66;5032241;28;20046;-77
2024/01/16 02:28:27;;;;;;;6.82;3.80;;;;;;;-0.37;64.88;96075.22;5032334;28;20049;-77
2024/01/16 02:30:55;;;;;;;3.80;3.30;;;;;;;-0.38;65.08;96068.50;5032233;28;20053;-77
2024/01/16 02:33:23;;;;;;;6.32;3.70;;;;;;;-0.38;65.63;96071.06;5032120;28;20053;-77
2024/01/16 02:35:51;;;;;;;5.28;3.70;;;;;;;-0.36;65.69;96069.19;5032093;28;20087;-77
2024/01/16 02:38:19;;;;;;;6.25;3.25;;;;;;;-0.35;65.63;96078.47;5031956;28;20143;-77
2024/01/16 02:40:47;;;;;;;7.78;3.78;;;;;;;-0.34;64.95;96072.44;5032253;28;20491;-77
2024/01/16 02:43:15;;;;;;;6.35;3.70;;;;;;;-0.34;65.35;96072.44;5031739;28;20053;-77
2024/01/16 02:45:43;;;;;;;7.93;5.30;;;;;;;-0.30;65.13;96068.69;5032127;28;20046;-77
2024/01/16 02:48:11;;;;;;;5.60;3.72;;;;;;;-0.28;65.38;96059.91;5032208;28;20144;-76
2024/01/16 02:50:39;;;;;;;5.60;3.70;;;;;;;-0.29;65.25;96057.47;5031867;28;20436;-77
2024/01/16 02:53:06;;;;;;;5.55;4.15;;;;;;;-0.30;65.23;96053.31;5031537;28;20056;-77
2024/01/16 02:55:34;;;;;;;7.00;3.45;;;;;;;-0.31;65.11;96049.91;5031926;28;20046;-77
2024/01/16 02:58:03;;;;;;;5.82;3.35;;;;;;;-0.32;65.24;96057.75;5043455;28;20076;-76
2024/01/16 03:00:31;;;;;;;6.45;4.28;;;;;;;-0.33;65.33;96053.53;5056652;28;20077;-76
2024/01/16 03:02:58;;;;;;;8.43;4.10;;;;;;;-0.33;65.37;96061.22;5051572;28;20053;-77
2024/01/16 03:05:26;;;;;;;6.22;3.97;;;;;;;-0.33;65.04;96063.78;5032669;28;20460;-77
2024/01/16 03:07:53;;;;;;;9.02;3.05;;;;;;;-0.34;65.01;96062.19;5032452;28;20420;-77
2024/01/16 03:10:21;;;;;;;5.93;3.55;;;;;;;-0.34;64.69;96059.63;5032106;28;20428;-77
2024/01/16 03:12:48;;;;;;;6.07;3.63;;;;;;;-0.37;65.32;96062.41;5031962;28;20045;-76
2024/01/16 03:15:17;;;;;;;5.35;3.65;;;;;;;-0.37;65.18;96070.09;5031700;28;20559;-77
2024/01/16 03:17:45;;;;;;;5.78;3.90;;;;;;;-0.36;65.22;96053.81;5031664;28;20053;-77
2024/01/16 03:20:13;;;;;;;7.75;3.88;;;;;;;-0.31;65.32;96057.59;5031852;28;20567;-77
2024/01/16 03:22:40;;;;;;;8.40;3.72;;;;;;;-0.27;65.00;96063.28;5031875;28;20106;-77
2024/01/16 03:25:10;;;;;;;6.40;3.60;;;;;;;-0.27;64.93;96053.03;5031681;28;20045;-76
2024/01/16 03:27:38;;;;;;;6.25;4.00;;;;;;;-0.27;65.03;96060.72;5035609;28;20144;-77
2024/01/16 03:30:08;;;;;;;4.65;3.47;;;;;;;-0.27;65.20;96058.16;5038630;28;20049;-77
2024/01/16 03:32:37;;;;;;;4.72;3.30;;;;;;;-0.26;65.17;96059.81;5035965;28;20107;-77
2024/01/16 03:35:07;;;;;;;6.15;3.60;;;;;;;-0.29;65.12;96055.72;5035502;28;20138;-76
2024/01/16 03:37:35;;;;;;;5.10;3.25;;;;;;;-0.32;65.08;96065.44;5035801;28;20099;-77
2024/01/16 03:40:02;;;;;;;6.35;3.83;;;;;;;-0.35;65.17;96065.66;5035204;28;20095;-77
2024/01/16 03:42:30;;;;;;;6.25;3.65;;;;;;;-0.37;65.05;96068.38;5034843;28;20049;-77
2024/01/16 03:44:57;;;;;;;7.10;3.65;;;;;;;-0.36;64.81;96075.13;5035487;28;20049;-77
2024/01/16 03:47:25;;;;;;;8.60;3.90;;;;;;;-0.40;64.60;96070.38;5036536;28;20049;-76
2024/01/16 03:49:54;;;;;;;5.00;3.47;;;;;;;-0.43;65.43;96068.88;5036799;28;20073;-77
2024/01/16 03:52:21;;;;;;;5.55;3.90;;;;;;;-0.41;65.92;96067.00;5036074;28;20053;-77
2024/01/16 03:54:49;;;;;;;5.70;3.85;;;;;;;-0.43;64.95;96071.44;5035816;28;20050;-76
2024/01/16 03:57:16;;;;;;;6.38;3.30;;;;;;;-0.48;64.91;96076.13;5035021;28;20055;-77
2024/01/16 03:59:44;;;;;;;5.93;3.55;;;;;;;-0.49;65.21;96074.50;5036841;28;20519;-77
2024/01/16 04:02:11;;;;;;;6.82;4.15;;;;;;;-0.48;65.49;96073.56;5037291;28;20052;-77
2024/01/16 04:04:39;;;;;;;7.03;3.85;;;;;;;-0.48;65.11;96076.94;5035255;28;20084;-77
2024/01/16 04:07:08;;;;;;;5.25;3.30;;;;;;;-0.48;65.27;96076.94;5034904;28;20047;-77
2024/01/16 04:09:35;;;;;;;7.65;3.83;;;;;;;-0.47;65.86;96078.56;5034649;28;20045;-77
2024/01/16 04:12:03;;;;;;;7.30;4.32;;;;;;;-0.46;65.39;96077.63;5034747;28;20055;-77
2024/01/16 04:14:30;;;;;;;6.55;4.25;;;;;;;-0.46;65.65;96080.19;5034845;28;20128;-77
2024/01/16 04:16:58;;;;;;;6.85;3.95;;;;;;;-0.43;65.89;96087.63;5034769;28;20424;-77
2024/01/16 04:19:25;;;;;;;6.30;3.72;;;;;;;-0.42;65.97;96085.88;5034720;28;20059;-77
2024/01/16 04:21:53;;;;;;;4.63;3.70;;;;;;;-0.44;65.54;96092.88;5034836;28;20049;-76
2024/01/16 04:24:22;;;;;;;5.20;3.33;;;;;;;-0.48;65.11;96084.63;5034414;28;20049;-77
2024/01/16 04:26:50;;;;;;;7.30;3.53;;;;;;;-0.48;65.11;96083.81;5034297;28;20045;-77
2024/01/16 04:29:18;;;;;;;6.72;3.28;;;;;;;-0.47;65.04;96088.00;5033950;28;20056;-77
2024/01/16 04:31:45;;;;;;;7.10;4.35;;;;;;;-0.48;65.72;96084.63;5034590;28;20052;-77
2024/01/16 04:34:13;;;;;;;6.55;3.65;;;;;;;-0.46;65.56;96087.06;5033888;28;20049;-77
2024/01/16 04:36:40;;;;;;;7.75;4.30;;;;;;;-0.47;65.14;96086.25;5034352;28;20041;-77
2024/01/16 04:39:09;;;;;;;7.03;3.70;;;;;;;-0.50;64.44;96094.19;5033187;28;20132;-77
2024/01/16 04:41:37;;;;;;;7.18;3.88;;;;;;;-0.51;65.46;96084.88;5033652;28;20053;-77
2024/01/16 04:44:05;;;;;;;5.90;3.80;;;;;;;-0.49;65.36;96077.88;5033936;28;20067;-77
2024/01/16 04:46:33;;;;;;;5.68;3.33;;;;;;;-0.46;65.76;96075.06;5033726;28;20497;-77
2024/01/16 04:49:01;;;;;;;7.88;3.88;;;;;;;-0.42;65.78;96084.13;5033825;28;20050;-77
2024/01/16 04:51:28;;;;;;;5.75;4.07;;;;;;;-0.45;65.44;96081.81;5034050;28;20073;-77
2024/01/16 04:53:56;;;;;;;5.25;3.20;;;;;;;-0.47;65.42;96080.31;5033795;28;20133;-76
2024/01/16 04:56:23;;;;;;;6.03;3.53;;;;;;;-0.46;65.73;96085.31;5034202;28;20483;-77
2024/01/16 04:58:52;;;;;;;7.65;4.28;;;;;;;-0.47;64.85;96078.56;5033713;28;20493;-77
2024/01/16 05:01:20;;;;;;;7.65;4.15;;;;;;;-0.48;65.21;96082.06;5033967;28;20095;-76
2024/01/16 05:03:47;;;;;;;6.45;3.90;;;;;;;-0.49;65.66;96074.50;5043872;28;20041;-77
2024/01/16 05:06:16;;;;;;;5.88;3.58;;;;;;;-0.51;65.59;96077.19;5053845;28;20041;-77
2024/01/16 05:08:44;;;;;;;6.72;3.28;;;;;;;-0.55;65.23;96078.38;5036047;28;20042;-77
2024/01/16 05:11:12;;;;;;;6.88;3.40;;;;;;;-0.55;65.00;96075.00;5047330;28;20052;-77
2024/01/16 05:13:39;;;;;;;5.88;3.58;;;;;;;-0.54;65.16;96067.19;5044492;28;20049;-77
2024/01/16 05:16:08;;;;;;;5.68;3.28;;;;;;;-0.55;64.50;96073.25;5048262;28;20049;-77
2024/01/16 05:18:36;;;;;;;5.45;3.08;;;;;;;-0.57;65.13;96062.31;5053824;28;20551;-77
2024/01/16 05:21:06;;;;;;;6.82;3.78;;;;;;;-0.57;65.11;96064.88;5053655;28;20053;-77
2024/01/16 05:23:34;;;;;;;5.32;3.97;;;;;;;-0.56;64.92;96063.16;5053269;28;20045;-76
2024/01/16 05:26:02;;;;;;;5.13;3.13;;;;;;;-0.58;64.92;96065.81;5047488;28;20048;-77
2024/01/16 05:28:29;;;;;;;5.20;3.75;;;;;;;-0.57;64.62;96064.88;5053747;28;20428;-77
2024/01/16 05:30:57;;;;;;;6.97;3.38;;;;;;;-0.59;64.76;96069.34;5053657;28;20059;-77
2024/01/16 05:33:26;;;;;;;6.47;4.22;;;;;;;-0.65;64.83;96067.28;5052859;28;20064;-77
2024/01/16 05:35:53;;;;;;;22.83;10.57;;;;;;;-0.69;64.70;96064.13;5053489;28;20088;-78
2024/01/16 05:38:21;;;;;;;32.50;15.65;;;;;;;-0.70;65.37;96061.69;5049947;28;20052;-77
2024/01/16 05:40:49;;;;;;;16.85;8.45;;;;;;;-0.69;65.71;96066.69;5013402;28;20104;-77
2024/01/16 05:43:16;;;;;;;10.00;5.28;;;;;;;-0.68;65.68;96059.81;5011465;28;20501;-77
2024/01/16 05:45:44;;;;;;;6.25;3.72;;;;;;;-0.67;65.46;96058.91;5003564;28;20136;-77
2024/01/16 05:48:11;;;;;;;5.32;3.72;;;;;;;-0.70;64.77;96051.44;5011520;28;20145;-77
2024/01/16 05:50:41;;;;;;;6.57;3.78;;;;;;;-0.74;64.98;96055.22;5011693;28;20049;-77
2024/01/16 05:53:09;;;;;;;7.60;4.00;;;;;;;-0.73;65.76;96059.41;5011942;28;20046;-77
2024/01/16 05:55:37;;;;;;;6.15;3.88;;;;;;;-0.71;65.62;96047.28;5011899;28;20053;-77
2024/01/16 05:58:05;;;;;;;7.05;3.75;;;;;;;-0.71;65.07;96044.72;5012877;28;20050;-77
2024/01/16 06:00:33;;;;;;;5.10;3.50;;;;;;;-0.72;65.48;96045.63;5013265;28;20057;-77
2024/01/16 06:03:01;;;;;;;5.80;3.50;;;;;;;-0.71;66.08;96045.53;5013205;28;20050;-77
2024/01/16 06:05:28;;;;;;;5.38;3.45;;;;;;;-0.67;65.86;96053.78;5015048;28;20057;-77
2024/01/16 06:07:57;;;;;;;5.30;3.60;;;;;;;-0.68;65.10;96047.00;5016020;28;20046;-78
2024/01/16 06:10:25;;;;;;;5.63;3.53;;;;;;;-0.69;65.46;96043.66;5014823;28;20077;-78
2024/01/16 06:12:52;;;;;;;6.97;4.00;;;;;;;-0.68;64.96;96047.00;5014379;28;20053;-78
2024/01/16 06:15:20;;;;;;;5.45;4.00;;;;;;;-0.68;65.24;96044.44;5014442;28;20049;-77
2024/01/16 06:17:47;;;;;;;8.23;5.10;;;;;;;-0.68;65.52;96042.72;5014321;28;20050;-77
2024/01/16 06:20:15;;;;;;;7.78;4.70;;;;;;;-0.69;65.58;96035.16;5014029;28;20053;-78
2024/01/16 06:22:43;;;;;;;7.50;4.47;;;;;;;-0.73;65.31;96037.16;5027347;28;20038;-77
2024/01/16 06:25:12;;;;;;;9.90;4.47;;;;;;;-0.79;64.91;96032.53;5036998;28;20073;-77
2024/01/16 06:27:41;;;;;;;7.63;4.35;;;;;;;-0.79;65.99;96036.84;5029370;28;20085;-78
2024/01/16 06:30:10;;;;;;;8.45;4.28;;;;;;;-0.77;66.18;96034.97;5013638;28;20054;-78
2024/01/16 06:32:38;;;;;;;6.47;4.05;;;;;;;-0.78;65.46;96029.03;5013273;28;20088;-77
2024/01/16 06:35:07;;;;;;;10.82;4.65;;;;;;;-0.80;65.14;96035.22;5012738;28;20053;-77
2024/01/16 06:37:35;;;;;;;9.88;3.40;;;;;;;-0.78;65.47;96033.34;5012795;28;20053;-78
2024/01/16 06:40:03;;;;;;;7.28;4.22;;;;;;;-0.77;64.88;96029.84;5012433;28;20081;-78
2024/01/16 06:42:32;;;;;;;7.45;4.30;;;;;;;-0.79;64.92;96034.28;5012674;28;20046;-77
2024/01/16 06:44:59;;;;;;;6.10;3.90;;;;;;;-0.81;65.34;96042.06;5012872;28;20056;-76
2024/01/16 06:47:27;;;;;;;6.57;4.25;;;;;;;-0.82;64.63;96039.66;5012844;28;20045;-77
2024/01/16 06:49:55;;;;;;;6.82;4.30;;;;;;;-0.88;64.70;96039.19;5012669;28;20096;-78
2024/01/16 06:52:22;;;;;;;5.75;3.80;;;;;;;-0.91;65.00;96042.03;5012537;28;20050;-77
2024/01/16 06:54:50;;;;;;;10.52;4.65;;;;;;;-0.93;65.37;96046.47;5012723;28;20064;-77
2024/01/16 06:57:17;;;;;;;9.68;5.75;;;;;;;-0.98;64.37;96042.66;5012501;28;20516;-77
2024/01/16 06:59:47;;;;;;;8.98;5.32;;;;;;;-1.12;63.85;96046.31;5042140;23;20046;-85
2024/01/16 07:02:15;;;;;;;8.18;4.90;;;;;;;-1.23;64.03;96052.28;5049367;28;20049;-82
2024/01/16 07:04:42;;;;;;;6.78;4.55;;;;;;;-1.30;64.96;96057.06;5051035;28;20136;-82
2024/01/16 07:07:10;;;;;;;7.85;4.50;;;;;;;-1.32;65.17;96051.28;5050174;28;20639;-82
2024/01/16 07:09:38;;;;;;;7.35;4.38;;;;;;;-1.32;65.68;96051.28;5058707;28;20056;-82
2024/01/16 07:12:06;;;;;;;7.05;4.95;;;;;;;-1.37;65.24;96053.38;5058735;28;20073;-82
2024/01/16 07:14:33;;;;;;;12.35;5.18;;;;;;;-1.41;65.94;96049.44;5058034;28;20049;-83
2024/01/16 07:17:03;;;;;;;9.07;5.15;;;;;;;-1.40;65.35;96051.09;5047820;28;20084;-83
2024/01/16 07:19:31;;;;;;;8.38;5.50;;;;;;;-1.42;65.24;96050.38;5049249;28;20076;-83
2024/01/16 07:21:59;;;;;;;10.13;5.07;;;;;;;-1.42;65.04;96055.50;5048222;28;20516;-83
2024/01/16 07:24:26;;;;;;;6.18;3.97;;;;;;;-1.45;64.80;96051.41;5047793;28;20049;-82
2024/01/16 07:26:55;;;;;;;8.77;5.38;;;;;;;-1.47;64.72;96057.59;5048028;28;20584;-83
2024/01/16 07:29:23;;;;;;;11.40;6.10;;;;;;;-1.49;64.50;96054.34;5047134;28;20055;-82
2024/01/16 07:31:50;;;;;;;7.30;4.90;;;;;;;-1.52;64.19;96062.28;5046816;28;20045;-84
2024/01/16 07:34:21;;;;;;;8.15;5.32;;;;;;;-1.56;64.60;96050.66;5045817;28;20599;-82
2024/01/16 07:36:49;;;;;;;9.25;5.20;;;;;;;-1.53;65.26;96052.94;5046341;28;20045;-83
2024/01/16 07:39:17;;;;;;;7.50;4.30;;;;;;;-1.52;64.79;96055.41;5046770;28;20487;-84
2024/01/16 07:41:45;;;;;;;7.93;4.85;;;;;;;-1.56;64.58;96053.22;5046394;28;20087;-82
2024/01/16 07:44:12;;;;;;;6.78;4.60;;;;;;;-1.57;64.48;96056.72;5044820;28;20086;-82
2024/01/16 07:46:40;;;;;;;10.10;4.95;;;;;;;-1.58;64.36;96058.44;5044820;28;20080;-83
2024/01/16 07:49:08;;;;;;;7.05;4.22;;;;;;;-1.59;64.79;96054.25;5044708;28;20080;-82
2024/01/16 07:51:37;;;;;;;9.38;4.45;;;;;;;-1.63;64.67;96062.31;5045151;28;20057;-81
2024/01/16 07:54:06;;;;;;;9.20;4.70;;;;;;;-1.66;64.60;96064.16;5044562;28;20046;-83
2024/01/16 07:56:34;;;;;;;12.43;6.13;;;;;;;-1.66;65.00;96059.06;5044598;28;20071;-83
2024/01/16 07:59:03;;;;;;;22.50;9.60;;;;;;;-1.66;64.85;96061.59;5044842;28;20052;-82
2024/01/16 08:01:31;;;;;;;13.40;7.03;;;;;;;-1.70;64.98;96057.66;5045087;28;20053;-82
2024/01/16 08:03:59;;;;;;;11.95;6.13;;;;;;;-1.67;65.16;96070.19;5046818;28;20513;-82
2024/01/16 08:06:27;;;;;;;12.00;6.57;;;;;;;-1.66;64.91;96064.16;5046864;28;20117;-84
2024/01/16 08:08:57;;;;;;;10.32;6.28;;;;;;;-1.67;64.99;96067.63;5048304;28;20060;-84
2024/01/16 08:11:24;;;;;;;9.88;5.68;;;;;;;-1.65;65.02;96070.09;5055682;28;20113;-82
2024/01/16 08:13:52;;;;;;;10.18;6.47;;;;;;;-1.67;65.16;96072.75;5056893;28;20073;-85
2024/01/16 08:16:20;;;;;;;17.60;7.13;;;;;;;-1.71;65.11;96066.25;5058290;28;20053;-83
2024/01/16 08:18:48;;;;;;;13.13;7.55;;;;;;;-1.75;65.38;96064.88;5055391;28;20056;-83
2024/01/16 08:21:16;;;;;;;9.30;6.07;;;;;;;-1.76;65.52;96067.56;5045647;28;20436;-82
2024/01/16 08:23:44;;;;;;;11.50;5.65;;;;;;;-1.74;66.14;96065.69;5045730;28;20111;-83
2024/01/16 08:26:13;;;;;;;13.95;6.95;;;;;;;-1.72;66.01;96069.75;5044824;28;20055;-82
2024/01/16 08:28:41;;;;;;;13.00;6.80;;;;;;;-1.70;65.96;96072.19;5044053;28;20050;-83
2024/01/16 08:31:08;;;;;;;11.52;6.18;;;;;;;-1.69;65.73;96071.25;5045322;28;20077;-83
2024/01/16 08:33:37;;;;;;;13.75;6.10;;;;;;;-1.69;65.68;96066.94;5044685;28;20052;-82
2024/01/16 08:36:13;;;;;;;14.73;6.25;;;;;;;-1.60;66.10;96067.97;5045362;28;20104;-83
2024/01/16 08:38:41;;;;;;;12.02;7.32;;;;;;;-1.53;65.93;96068.31;5045127;28;20049;-83
2024/01/16 08:41:09;;;;;;;18.77;7.72;;;;;;;-1.54;65.59;96064.13;5045181;28;20057;-82
2024/01/16 08:43:38;;;;;;;12.73;6.15;;;;;;;-1.52;65.21;96064.81;5045756;28;20045;-83
2024/01/16 08:46:06;;;;;;;8.90;5.70;;;;;;;-1.55;65.66;96070.16;5044538;28;20072;-83
2024/01/16 08:48:34;;;;;;;9.00;4.95;;;;;;;-1.53;65.18;96068.31;5044628;28;20056;-83
2024/01/16 08:51:02;;;;;;;9.65;5.03;;;;;;;-1.49;65.38;96074.81;5045376;28;20080;-83
2024/01/16 08:53:30;;;;;;;8.23;4.43;;;;;;;-1.44;65.27;96077.84;5044556;28;20146;-83
2024/01/16 08:55:58;;;;;;;8.90;4.80;;;;;;;-1.36;65.22;96085.69;5045400;28;20288;-83
2024/01/16 08:58:26;;;;;;;7.18;4.18;;;;;;;-1.29;65.00;96074.06;5045989;28;20113;-85
2024/01/16 09:00:55;;;;;;;5.97;3.60;;;;;;;-1.22;64.46;96073.56;5045701;28;20049;-84
2024/01/16 09:03:23;;;;;;;6.95;4.35;;;;;;;-1.18;64.54;96060.44;5045676;28;20051;-82
2024/01/16 09:05:51;;;;;;;6.70;4.68;;;;;;;-1.17;64.56;96056.91;5045937;28;20504;-82
2024/01/16 09:08:19;;;;;;;8.65;4.75;;;;;;;-1.17;64.31;96058.69;5046093;28;20060;-82
2024/01/16 09:10:48;;;;;;;7.50;5.07;;;;;;;-1.20;64.37;96053.78;5045998;28;20045;-82
2024/01/16 09:13:15;;;;;;;9.27;5.63;;;;;;;-1.21;64.09;96059.84;5045259;28;20049;-83
2024/01/16 09:15:43;;;;;;;6.97;4.15;;;;;;;-1.22;64.25;96060.78;5046010;28;20551;-82
2024/01/16 09:18:12;;;;;;;7.65;4.78;;;;;;;-1.16;64.50;96056.00;5045496;28;20500;-86
2024/01/16 09:20:40;;;;;;;8.00;5.53;;;;;;;-1.05;64.54;96057.66;5046500;28;20060;-82
2024/01/16 09:23:08;;;;;;;6.88;4.28;;;;;;;-0.94;65.15;96064.50;5045869;28;20055;-83
2024/01/16 09:25:36;;;;;;;7.00;4.60;;;;;;;-0.87;64.93;96063.88;5048609;28;20065;-83
2024/01/16 09:28:04;;;;;;;6.85;3.75;;;;;;;-0.85;64.15;96069.69;5048812;28;20077;-85
2024/01/16 09:30:33;;;;;;;5.80;3.97;;;;;;;-0.86;63.90;96064.69;5048508;28;20157;-84
2024/01/16 09:33:01;;;;;;;10.63;4.60;;;;;;;-0.81;63.84;96065.13;5048157;28;20060;-82
2024/01/16 09:35:30;;;;;;;10.77;5.82;;;;;;;-0.75;63.88;96071.50;5048035;28;20081;-82
2024/01/16 09:37:59;;;;;;;8.65;5.68;;;;;;;-0.68;63.42;96075.19;5046745;28;20067;-82
2024/01/16 09:40:27;;;;;;;8.70;5.60;;;;;;;-0.60;63.28;96087.38;5047562;28;20109;-82
2024/01/16 09:42:55;;;;;;;12.98;6.57;;;;;;;-0.54;63.10;96092.81;5047705;28;20041;-82
2024/01/16 09:45:24;;;;;;;15.20;7.13;;;;;;;-0.47;63.50;96082.88;5047538;28;20049;-82
2024/01/16 09:47:53;;;;;;;17.85;8.02;;;;;;;-0.43;62.70;96094.50;5047910;28;20084;-82
2024/01/16 09:50:21;;;;;;;16.85;7.18;;;;;;;-0.38;62.95;96086.44;5047367;28;20140;-82
2024/01/16 09:52:51;;;;;;;13.00;6.95;;;;;;;-0.33;62.67;96090.25;5047392;28;20049;-82
2024/01/16 09:55:19;;;;;;;14.55;6.85;;;;;;;-0.28;63.00;96087.31;5047322;28;20050;-82
2024/01/16 09:57:47;;;;;;;13.75;6.55;;;;;;;-0.22;62.93;96089.34;5047007;28;20073;-82
2024/01/16 10:00:16;;;;;;;13.35;5.63;;;;;;;-0.11;62.05;96088.44;5047089;28;20050;-82
2024/01/16 10:02:43;;;;;;;11.40;5.43;;;;;;;-0.06;62.39;96082.00;5047034;28;20049;-81
2024/01/16 10:05:12;;;;;;;9.07;5.55;;;;;;;0.04;62.36;96081.22;5046744;28;20050;-81
2024/01/16 10:07:43;;;;;;;9.88;5.45;;;;;;;0.13;62.02;96085.56;5047274;28;20401;-82
2024/01/16 10:10:13;;;;;;;7.90;4.97;;;;;;;0.21;61.72;96090.88;5047537;28;20475;-82
2024/01/16 10:12:47;;;;;;;7.40;4.20;;;;;;;0.30;62.24;96092.66;5047345;28;20049;-82
2024/01/16 10:15:16;;;;;;;7.60;3.67;;;;;;;0.36;60.98;96097.28;5046830;28;20045;-82
2024/01/16 10:17:44;;;;;;;5.60;3.35;;;;;;;0.38;62.04;96097.16;5046940;28;20042;-82
2024/01/16 10:20:13;;;;;;;7.72;4.18;;;;;;;0.48;62.33;96089.47;5046298;28;20053;-82
2024/01/16 10:22:44;;;;;;;7.22;3.70;;;;;;;0.56;61.37;96079.34;5047127;28;20136;-81
2024/01/16 10:25:16;;;;;;;6.60;3.13;;;;;;;0.60;61.34;96073.81;5047121;28;20061;-81
2024/01/16 10:27:45;;;;;;;5.97;3.30;;;;;;;0.61;61.61;96070.31;5047246;28;20117;-82
2024/01/16 10:30:13;;;;;;;8.43;3.75;;;;;;;0.65;60.67;96070.06;5047209;28;20103;-82
2024/01/16 10:32:43;;;;;;;11.23;4.10;;;;;;;0.66;60.20;96066.56;5047082;28;20113;-82
2024/01/16 10:35:12;;;;;;;8.15;3.80;;;;;;;0.63;59.96;96067.59;5045344;28;20045;-82
2024/01/16 10:37:48;;;;;;;6.45;2.88;;;;;;;0.69;62.28;96068.84;5046402;28;20053;-82
2024/01/16 10:40:19;;;;;;;8.00;2.95;;;;;;;0.77;60.58;96064.66;5045578;28;20112;-82
2024/01/16 10:42:59;;;;;;;7.03;3.88;;;;;;;0.84;61.77;96061.56;5052737;28;20092;-81
2024/01/16 10:45:27;;;;;;;5.15;2.83;;;;;;;0.94;61.89;96059.78;5057652;28;20053;-80
2024/01/16 10:48:02;;;;;;;5.13;3.30;;;;;;;1.02;61.05;96054.78;5057370;28;20033;-80
2024/01/16 10:50:32;;;;;;;5.50;3.10;;;;;;;1.09;61.38;96044.78;5053043;28;20497;-82
2024/01/16 10:53:04;;;;;;;7.43;4.22;;;;;;;1.14;61.12;96051.16;5047348;28;20050;-82
2024/01/16 10:55:44;;;;;;;4.20;3.00;;;;;;;1.19;59.20;96041.25;5048091;28;20061;-82
2024/01/16 10:58:14;;;;;;;5.25;3.85;;;;;;;1.19;60.27;96038.69;5048329;28;20049;-82
2024/01/16 11:00:49;;;;;;;7.50;3.40;;;;;;;1.20;59.27;96034.34;5047241;28;20060;-81
2024/01/16 11:03:22;;;;;;;4.20;3.42;;;;;;;1.18;59.77;96033.69;5047593;28;20053;-82
2024/01/16 11:05:51;;;;;;;5.13;4.03;;;;;;;1.18;60.40;96034.53;5048458;28;20049;-82
2024/01/16 11:08:20;;;;;;;5.10;3.22;;;;;;;1.21;60.18;96036.00;5047775;28;20057;-81
2024/01/16 11:10:50;;;;;;;6.97;3.67;;;;;;;1.25;59.65;96032.22;5048671;28;20547;-81
2024/01/16 11:13:20;;;;;;;4.50;3.17;;;;;;;1.31;60.63;96033.41;5047622;28;20042;-81
2024/01/16 11:15:49;;;;;;;7.80;3.60;;;;;;;1.32;60.44;96020.41;5048405;28;20041;-82
2024/01/16 11:18:18;;;;;;;8.93;3.90;;;;;;;1.34;58.93;96021.09;5048268;28;20052;-81
2024/01/16 11:20:47;;;;;;;6.63;3.38;;;;;;;1.35;60.36;96029.59;5048293;28;20053;-81
2024/01/16 11:23:34;;;;;;;7.72;4.07;;;;;;;1.40;59.74;96035.13;5047852;28;20138;-82
2024/01/16 11:26:25;;;;;;;6.30;3.30;;;;;;;1.44;58.95;96016.75;5048009;28;20050;-82
2024/01/16 11:28:56;;;;;;;4.30;3.40;;;;;;;1.52;60.91;96012.66;5048136;28;20046;-82
2024/01/16 11:31:35;;;;;;;5.30;2.90;;;;;;;1.57;59.54;96010.47;5048324;28;20053;-82
2024/01/16 11:34:04;;;;;;;5.30;3.53;;;;;;;1.61;59.26;96007.47;5047978;28;20065;-82
2024/01/16 11:36:55;;;;;;;6.28;3.35;;;;;;;1.60;57.54;95990.44;5048265;28;20085;-82
2024/01/16 11:39:26;;;;;;;5.03;3.20;;;;;;;1.64;58.33;95989.22;5048407;28;20061;-82
2024/01/16 11:41:56;;;;;;;7.63;3.75;;;;;;;1.68;57.62;95981.22;5051081;28;20036;-81